Portada
METAR-TAF:

METAR-TAF

Aeroports :

Estocolm-Arlanda, Suècia

latitud: 59-39N, longitud: 017-57E, altitud: 38 m

Observació

L'informe es va fer fa 27 minuts, a les 07:50 UTC
Vent 5 kt del Oest
Temperatura -2°C
Humitat 93%
Pressió 1023 hPa
Visibilitat: 8000 m
Cel cobert a una alçada de 1800 ft

METAR: ESSA 180750Z 27005KT 8000 OVC018 M02/M03 Q1023 R01L/410176 R01R/410176 R08/410171 NOSIG

Hora: 09:17 (08:17 UTC)

Pronòstic

L'informe es va fer fa 2 hores i 47 minuts, a les 05:30 UTC
Pronòstic vàlid del 18 a les 06 UTC al 19 a les 06 UTC
Vent 5 kt del Oest
Visibilitat 10 km o més
Cel ennuvolat a una alçada de 3000 ft
Probabilitat 40%
l' 18 a les 13 UTC al 18 a les 23 UTC
Visibilitat: 2500 m
Cel ennuvolat a una alçada de 800 ft
neu
Evolucionant progressivament
l' 19 a les 03 UTC al 19 a les 05 UTC
Vent 10 kt del Est/Nord-Est

TAF: ESSA 180530Z 1806/1906 28005KT 9999 BKN030 PROB40 1813/1823 2500 -SN BKN008 BECMG 1903/1905 06010KT

Observacions i pronòstics meteorològics de més de 4000 aeroports (METAR i TAF).

Les estacions disponibles són els punts grocs i vermells al mapa.

Posi el ratolí al punt desitjat per veure el nom de l'estació.

Feu clic per veure les observacions i els pronòstics meteorològics.

Per canviar el mapa: feu clic els botons verds amb una creu de color negre per apropar; al botó verd amb un guió per allunyar la imatge; o en les fletxes verdes per a mapes adjacents.


METAR-TAF: